CheckWX is a tool to help pilots better visualize weather data.  It is not intended as a substitute for an official pre-flight weather briefing.

08:15:52 UTC

KCKI METAR
Williamsburg Regional Airport
Kingstree, South Carolina, USA
Current

21 mins ago

KCKI 220755Z AUTO 00000KT M1/4SM FG OVC003 13/13 A3013 RMK AO2
Observed
Feb-22 @ 07:55 UTC
Visibility
1/4 SM
Flight Rules
LIFR
Conditions
Fog
Cloud Levels
  • Overcast at 300' AGL
Temperature
13°C / 55°F
Dewpoint
13°C / 55°F
Humidity
100%
Altimeter
30.13" Hg
Pressure
1020.32 hPa
Previous

41 mins ago

KCKI 220735Z AUTO 00000KT 1/4SM FG OVC005 13/12 A3013 RMK AO2
Observed
Feb-22 @ 07:35 UTC
Visibility
1/4 SM
Flight Rules
LIFR
Conditions
Fog
Cloud Levels
  • Overcast at 500' AGL
Temperature
13°C / 55°F
Dewpoint
12°C / 54°F
Humidity
94%
Altimeter
30.13" Hg
Pressure
1020.32 hPa
Previous

1 hour ago

KCKI 220715Z AUTO 00000KT 1/4SM FG OVC009 13/13 A3013 RMK AO2
Observed
Feb-22 @ 07:15 UTC
Visibility
1/4 SM
Flight Rules
LIFR
Conditions
Fog
Cloud Levels
  • Overcast at 900' AGL
Temperature
13°C / 55°F
Dewpoint
13°C / 55°F
Humidity
100%
Altimeter
30.13" Hg
Pressure
1020.32 hPa